createdAt,value
2017-05-24T00:00:39.638Z,14.90
2017-05-24T00:03:13.864Z,14.74
2017-05-24T00:05:48.247Z,14.28
2017-05-24T00:08:22.578Z,14.66
2017-05-24T00:10:56.812Z,14.04
2017-05-24T00:13:31.223Z,15.20
2017-05-24T00:16:05.393Z,15.20
2017-05-24T00:18:39.566Z,15.84
2017-05-24T00:21:13.992Z,16.52
2017-05-24T00:23:48.161Z,17.58
2017-05-24T00:26:22.369Z,17.80
2017-05-24T00:28:56.500Z,17.82
2017-05-24T00:31:30.565Z,16.54
2017-05-24T00:34:04.799Z,16.58
2017-05-24T00:36:39.127Z,15.16
2017-05-24T00:39:13.533Z,16.60
2017-05-24T00:41:47.602Z,16.05
2017-05-24T00:44:21.860Z,15.80
2017-05-24T00:46:55.920Z,16.36
2017-05-24T00:49:30.161Z,14.48
2017-05-24T00:52:04.385Z,14.96
2017-05-24T00:54:38.556Z,14.50
2017-05-24T00:57:12.605Z,14.82
2017-05-24T00:59:46.713Z,14.22
2017-05-24T01:02:20.955Z,14.74
2017-05-24T01:04:55.205Z,15.64
2017-05-24T01:07:29.423Z,16.18
2017-05-24T01:10:03.631Z,15.64
2017-05-24T01:12:39.043Z,15.00
2017-05-24T01:15:23.184Z,15.56
2017-05-24T01:17:57.409Z,16.04
2017-05-24T01:20:31.685Z,18.84
2017-05-24T01:23:05.919Z,15.42
2017-05-24T01:25:42.139Z,15.72
2017-05-24T01:28:16.364Z,15.62
2017-05-24T01:30:50.666Z,14.24
2017-05-24T01:33:24.882Z,17.26
2017-05-24T01:35:59.113Z,21.50
2017-05-24T01:38:33.271Z,14.43
2017-05-24T01:41:07.534Z,15.00
2017-05-24T01:43:42.610Z,15.32
2017-05-24T01:46:16.916Z,13.22
2017-05-24T01:48:51.078Z,14.22
2017-05-24T01:51:25.281Z,12.92
2017-05-24T01:53:59.412Z,13.56
2017-05-24T01:56:33.484Z,13.04
2017-05-24T01:59:07.641Z,12.48
2017-05-24T02:01:41.835Z,11.68
2017-05-24T02:04:16.008Z,12.34
2017-05-24T02:06:50.193Z,11.48
2017-05-24T02:09:24.459Z,10.64
2017-05-24T02:11:58.569Z,10.38
2017-05-24T02:14:32.782Z,9.28
2017-05-24T02:17:07.048Z,9.38
2017-05-24T02:19:41.289Z,10.10
2017-05-24T02:22:15.590Z,9.86
2017-05-24T02:24:49.867Z,9.70
2017-05-24T02:27:23.986Z,9.88
2017-05-24T02:29:58.221Z,10.42
2017-05-24T02:32:32.692Z,9.44
2017-05-24T02:35:06.911Z,8.90
2017-05-24T02:37:41.074Z,9.46
2017-05-24T02:40:15.656Z,9.16
2017-05-24T02:42:49.898Z,9.74
2017-05-24T02:45:24.101Z,8.54
2017-05-24T02:48:02.059Z,8.34
2017-05-24T02:50:36.207Z,8.00
2017-05-24T02:53:10.464Z,8.58
2017-05-24T02:55:44.559Z,6.70
2017-05-24T02:58:18.813Z,7.10
2017-05-24T03:00:53.187Z,6.58
2017-05-24T03:03:27.300Z,6.58
2017-05-24T03:06:01.406Z,5.82
2017-05-24T03:08:35.533Z,4.88
2017-05-24T03:11:09.752Z,5.68
2017-05-24T03:13:43.805Z,6.50
2017-05-24T03:16:17.984Z,5.68
2017-05-24T03:18:52.101Z,5.28
2017-05-24T03:21:26.166Z,5.30
2017-05-24T03:24:00.276Z,5.72
2017-05-24T03:26:34.284Z,4.90
2017-05-24T03:29:08.458Z,5.80
2017-05-24T03:31:42.660Z,5.68
2017-05-24T03:34:16.876Z,5.46
2017-05-24T03:36:51.085Z,6.40
2017-05-24T03:39:25.089Z,5.76
2017-05-24T03:41:59.265Z,6.08
2017-05-24T03:44:33.493Z,6.68
2017-05-24T03:47:07.661Z,6.78
2017-05-24T03:49:41.995Z,6.42
2017-05-24T03:52:16.222Z,7.18
2017-05-24T03:54:50.441Z,6.40
2017-05-24T03:57:24.435Z,6.44
2017-05-24T03:59:58.681Z,6.36
2017-05-24T04:02:33.117Z,6.08
2017-05-24T04:05:07.180Z,6.32
2017-05-24T04:07:41.236Z,7.20
2017-05-24T04:10:15.433Z,6.68
2017-05-24T04:12:49.659Z,6.82
2017-05-24T04:15:23.944Z,6.80
2017-05-24T04:17:58.177Z,7.26
2017-05-24T04:20:32.231Z,6.68
2017-05-24T04:23:06.291Z,7.60
2017-05-24T04:25:40.432Z,7.26
2017-05-24T04:28:14.693Z,6.86
2017-05-24T04:30:49.069Z,7.38
2017-05-24T04:33:23.295Z,7.66
2017-05-24T04:35:57.443Z,7.00
2017-05-24T04:38:31.738Z,8.58
2017-05-24T04:41:06.062Z,8.52
2017-05-24T04:43:40.948Z,7.42
2017-05-24T04:46:15.217Z,9.22
2017-05-24T04:48:49.272Z,8.36
2017-05-24T04:51:23.309Z,11.22
2017-05-24T04:53:57.473Z,9.08
2017-05-24T04:56:31.609Z,9.32
2017-05-24T04:59:05.766Z,11.60
2017-05-24T05:01:39.865Z,8.18
2017-05-24T05:04:14.045Z,11.00
2017-05-24T05:06:48.238Z,10.90
2017-05-24T05:09:22.395Z,11.52
2017-05-24T05:11:56.569Z,9.06
2017-05-24T05:14:30.909Z,8.66
2017-05-24T05:17:05.066Z,8.44
2017-05-24T05:19:39.257Z,9.10
2017-05-24T05:22:13.549Z,8.48
2017-05-24T05:24:47.612Z,9.80
2017-05-24T05:27:21.768Z,9.22
2017-05-24T05:29:55.862Z,9.28
2017-05-24T05:32:29.957Z,9.98
2017-05-24T05:35:03.973Z,11.16
2017-05-24T05:37:38.171Z,11.90
2017-05-24T05:40:12.278Z,10.54
2017-05-24T05:42:46.483Z,10.36
2017-05-24T05:45:20.664Z,10.86
2017-05-24T05:47:54.808Z,11.62
2017-05-24T05:50:28.985Z,10.58
2017-05-24T05:53:03.218Z,10.72
2017-05-24T05:55:37.238Z,10.56
2017-05-24T05:58:11.402Z,11.60
2017-05-24T06:00:45.475Z,11.04
2017-05-24T06:03:19.716Z,10.78
2017-05-24T06:05:54.025Z,11.74
2017-05-24T06:08:28.095Z,12.12
2017-05-24T06:11:02.366Z,11.54
2017-05-24T06:13:36.641Z,11.54
2017-05-24T06:16:10.774Z,10.62
2017-05-24T06:18:45.084Z,11.58
2017-05-24T06:21:19.165Z,10.28
2017-05-24T06:23:55.350Z,10.88
2017-05-24T06:26:29.644Z,11.28
2017-05-24T06:29:05.568Z,10.06
2017-05-24T06:31:39.650Z,13.76
2017-05-24T06:34:13.768Z,10.96
2017-05-24T06:36:48.009Z,10.56
2017-05-24T06:39:22.045Z,10.16
2017-05-24T06:41:56.133Z,11.34
2017-05-24T06:44:30.174Z,11.12
2017-05-24T06:47:04.353Z,9.90
2017-05-24T06:49:38.472Z,10.08
2017-05-24T06:52:12.652Z,9.68
2017-05-24T06:54:46.897Z,10.02
2017-05-24T06:57:20.988Z,9.46
2017-05-24T06:59:55.050Z,16.56
2017-05-24T07:02:29.208Z,9.98
2017-05-24T07:05:03.255Z,10.52
2017-05-24T07:07:37.424Z,10.16
2017-05-24T07:10:11.494Z,10.18
2017-05-24T07:12:45.702Z,11.08
2017-05-24T07:15:19.962Z,10.78
2017-05-24T07:17:54.326Z,12.26
2017-05-24T07:20:28.370Z,11.82
2017-05-24T07:23:02.362Z,10.92
2017-05-24T07:25:36.567Z,11.34
2017-05-24T07:28:10.716Z,9.50
2017-05-24T07:30:44.803Z,11.18
2017-05-24T07:33:18.976Z,11.18
2017-05-24T07:35:53.341Z,10.80
2017-05-24T07:38:27.499Z,9.94
2017-05-24T07:41:01.732Z,10.62
2017-05-24T07:43:35.778Z,11.30
2017-05-24T07:46:10.032Z,10.62
2017-05-24T07:48:44.213Z,12.30
2017-05-24T07:51:18.304Z,12.06
2017-05-24T07:53:52.559Z,11.96
2017-05-24T07:56:26.652Z,13.78
2017-05-24T07:59:00.713Z,12.58
2017-05-24T08:01:34.817Z,13.02
2017-05-24T08:04:08.925Z,12.86
2017-05-24T08:06:43.085Z,11.80
2017-05-24T08:09:17.332Z,12.20
2017-05-24T08:11:51.528Z,12.40
2017-05-24T08:14:25.539Z,12.48
2017-05-24T08:16:59.717Z,10.98
2017-05-24T08:19:33.757Z,12.66
2017-05-24T08:22:08.067Z,12.16
2017-05-24T08:24:42.195Z,14.00
2017-05-24T08:27:16.298Z,11.54
2017-05-24T08:29:50.497Z,11.02
2017-05-24T08:32:24.595Z,11.74
2017-05-24T08:34:58.770Z,11.20
2017-05-24T08:37:32.956Z,10.38
2017-05-24T08:40:07.094Z,9.98
2017-05-24T08:42:41.589Z,12.08
2017-05-24T08:45:15.641Z,9.82
2017-05-24T08:47:49.676Z,10.02
2017-05-24T08:50:23.904Z,9.64
2017-05-24T08:52:58.148Z,11.74
2017-05-24T08:55:32.202Z,10.28
2017-05-24T08:58:06.318Z,9.46
2017-05-24T09:00:41.639Z,9.34
2017-05-24T09:03:15.805Z,9.12
2017-05-24T09:05:49.968Z,9.10
2017-05-24T09:08:24.061Z,9.18
2017-05-24T09:10:58.101Z,10.16
2017-05-24T09:13:32.342Z,9.84
2017-05-24T09:16:06.635Z,9.80
2017-05-24T09:18:40.780Z,11.20
2017-05-24T09:21:14.926Z,11.04
2017-05-24T09:23:49.049Z,11.18
2017-05-24T09:26:23.112Z,11.58
2017-05-24T09:28:58.445Z,10.72
2017-05-24T09:31:32.540Z,11.32
2017-05-24T09:34:06.659Z,13.34
2017-05-24T09:36:40.893Z,12.08
2017-05-24T09:39:14.926Z,12.94
2017-05-24T09:41:49.097Z,11.94
2017-05-24T09:44:23.270Z,12.80
2017-05-24T09:46:57.402Z,10.48
2017-05-24T09:49:31.485Z,10.22
2017-05-24T09:52:05.557Z,10.97
2017-05-24T09:54:39.789Z,12.32
2017-05-24T09:57:13.768Z,12.60
2017-05-24T09:59:47.865Z,13.84
2017-05-24T10:02:21.953Z,12.43
2017-05-24T10:04:56.062Z,10.78
2017-05-24T10:07:30.161Z,11.98
2017-05-24T10:10:04.363Z,11.90
2017-05-24T10:12:38.455Z,10.88
2017-05-24T10:15:12.616Z,12.70
2017-05-24T10:17:46.712Z,11.74
2017-05-24T10:20:20.899Z,11.60
2017-05-24T10:22:54.988Z,13.10
2017-05-24T10:25:29.028Z,13.52
2017-05-24T10:28:03.222Z,13.90
2017-05-24T10:30:37.457Z,15.58
2017-05-24T10:33:11.771Z,13.22
2017-05-24T10:35:45.968Z,15.88
2017-05-24T10:38:20.161Z,16.04
2017-05-24T10:41:00.208Z,18.00
2017-05-24T10:43:34.555Z,18.76
2017-05-24T10:46:08.763Z,17.20
2017-05-24T10:48:42.923Z,18.58
2017-05-24T10:51:16.929Z,19.90
2017-05-24T10:53:51.256Z,17.94
2017-05-24T10:56:25.459Z,17.94
2017-05-24T10:58:59.630Z,19.90
2017-05-24T11:01:33.949Z,18.58
2017-05-24T11:04:08.049Z,20.20
2017-05-24T11:06:42.232Z,17.84
2017-05-24T11:09:16.615Z,17.44
2017-05-24T11:11:50.758Z,15.62
2017-05-24T11:14:24.859Z,18.02
2017-05-24T11:16:59.036Z,16.58
2017-05-24T11:19:33.257Z,13.66
2017-05-24T11:22:07.478Z,15.20
2017-05-24T11:24:41.652Z,14.98
2017-05-24T11:27:15.769Z,13.18
2017-05-24T11:29:49.908Z,13.74
2017-05-24T11:32:24.140Z,14.18
2017-05-24T11:34:58.293Z,13.34
2017-05-24T11:37:32.501Z,16.52
2017-05-24T11:40:06.701Z,20.66
2017-05-24T11:42:40.798Z,13.32
2017-05-24T11:45:14.881Z,12.02
2017-05-24T11:47:49.009Z,12.88
2017-05-24T11:50:23.178Z,10.56
2017-05-24T11:52:57.221Z,14.56
2017-05-24T11:55:31.243Z,11.22
2017-05-24T11:58:05.431Z,12.80
2017-05-24T12:00:40.166Z,11.78
2017-05-24T12:03:14.227Z,11.88
2017-05-24T12:05:48.777Z,14.46
2017-05-24T12:08:22.889Z,12.22
2017-05-24T12:10:56.884Z,14.00
2017-05-24T12:13:31.199Z,12.94
2017-05-24T12:16:05.299Z,12.76
2017-05-24T12:18:39.346Z,14.06
2017-05-24T12:21:13.405Z,12.96
2017-05-24T12:23:47.565Z,13.42
2017-05-24T12:26:21.702Z,13.52
2017-05-24T12:28:56.141Z,15.18
2017-05-24T12:31:30.406Z,14.58
2017-05-24T12:34:04.649Z,15.38
2017-05-24T12:36:38.844Z,16.18
2017-05-24T12:39:12.975Z,14.96
2017-05-24T12:41:47.022Z,15.14
2017-05-24T12:44:21.256Z,14.98
2017-05-24T12:46:55.408Z,16.20
2017-05-24T12:49:29.748Z,17.98
2017-05-24T12:52:04.062Z,19.46
2017-05-24T12:54:38.308Z,20.36
2017-05-24T12:57:12.665Z,19.36
2017-05-24T12:59:46.962Z,18.78
2017-05-24T13:02:22.229Z,21.72
2017-05-24T13:04:56.422Z,22.46
2017-05-24T13:07:30.508Z,20.18
2017-05-24T13:10:04.701Z,18.80
2017-05-24T13:12:38.981Z,20.32
2017-05-24T13:15:13.108Z,15.94
2017-05-24T13:17:47.337Z,17.34
2017-05-24T13:20:21.643Z,15.02
2017-05-24T13:22:55.806Z,13.38
2017-05-24T13:25:30.002Z,13.44
2017-05-24T13:28:04.321Z,13.22
2017-05-24T13:30:38.361Z,12.00
2017-05-24T13:33:12.490Z,11.80
2017-05-24T13:35:46.807Z,10.48
2017-05-24T13:38:20.869Z,10.54
2017-05-24T13:40:54.977Z,8.88
2017-05-24T13:43:29.127Z,7.84
2017-05-24T13:46:03.408Z,9.32
2017-05-24T13:48:37.585Z,8.94
2017-05-24T13:51:11.632Z,8.82
2017-05-24T13:53:45.854Z,9.12
2017-05-24T13:56:19.955Z,8.06
2017-05-24T13:58:54.044Z,7.76
2017-05-24T14:01:28.127Z,9.78
2017-05-24T14:04:02.265Z,9.28
2017-05-24T14:06:36.338Z,9.54
2017-05-24T14:09:10.560Z,10.26
2017-05-24T14:11:44.816Z,10.98
2017-05-24T14:14:18.926Z,10.38
2017-05-24T14:16:53.173Z,11.72
2017-05-24T14:19:27.295Z,8.14
2017-05-24T14:22:01.574Z,7.18
2017-05-24T14:24:35.614Z,6.98
2017-05-24T14:27:09.770Z,8.20
2017-05-24T14:29:44.001Z,8.26
2017-05-24T14:32:18.073Z,10.36
2017-05-24T14:34:52.305Z,6.84
2017-05-24T14:37:26.436Z,7.52
2017-05-24T14:40:00.709Z,7.24
2017-05-24T14:42:34.891Z,6.62
2017-05-24T14:45:09.162Z,6.18
2017-05-24T14:47:43.302Z,6.14
2017-05-24T14:50:17.314Z,8.60
2017-05-24T14:52:51.570Z,6.28
2017-05-24T14:55:25.640Z,5.36
2017-05-24T14:57:59.881Z,5.68
2017-05-24T15:00:34.202Z,7.02
2017-05-24T15:03:08.228Z,7.14
2017-05-24T15:05:42.409Z,6.48
2017-05-24T15:08:16.605Z,8.42
2017-05-24T15:10:50.858Z,6.82
2017-05-24T15:13:24.930Z,8.78
2017-05-24T15:15:59.085Z,5.70
2017-05-24T15:18:33.133Z,6.02
2017-05-24T15:21:07.313Z,6.14
2017-05-24T15:23:41.561Z,5.80
2017-05-24T15:26:15.725Z,6.20
2017-05-24T15:28:50.338Z,6.80
2017-05-24T15:31:24.420Z,7.92
2017-05-24T15:33:58.619Z,8.14
2017-05-24T15:36:32.785Z,6.08
2017-05-24T15:39:07.010Z,6.66
2017-05-24T15:41:41.201Z,6.26
2017-05-24T15:44:15.461Z,5.58
2017-05-24T15:46:49.657Z,5.74
2017-05-24T15:49:23.721Z,7.98
2017-05-24T15:51:58.085Z,5.70
2017-05-24T15:54:32.237Z,5.24
2017-05-24T15:57:06.478Z,5.92
2017-05-24T15:59:40.736Z,5.62
2017-05-24T16:02:14.833Z,4.76
2017-05-24T16:04:49.064Z,5.02
2017-05-24T16:07:23.035Z,7.20
2017-05-24T16:09:57.178Z,5.36
2017-05-24T16:12:31.242Z,5.84
2017-05-24T16:15:05.274Z,5.66
2017-05-24T16:17:39.483Z,4.60
2017-05-24T16:20:13.577Z,5.42
2017-05-24T16:22:47.692Z,5.46
2017-05-24T16:25:21.764Z,5.06
2017-05-24T16:27:55.827Z,9.88
2017-05-24T16:30:29.971Z,6.94
2017-05-24T16:33:04.219Z,4.74
2017-05-24T16:35:38.405Z,5.92
2017-05-24T16:38:12.449Z,4.18
2017-05-24T16:40:46.773Z,4.32
2017-05-24T16:43:20.801Z,7.02
2017-05-24T16:45:54.889Z,5.74
2017-05-24T16:48:28.952Z,5.40
2017-05-24T16:51:03.228Z,4.66
2017-05-24T16:53:37.429Z,4.86
2017-05-24T16:56:11.705Z,7.86
2017-05-24T16:58:45.740Z,4.40
2017-05-24T17:01:19.801Z,4.46
2017-05-24T17:03:54.105Z,4.12
2017-05-24T17:06:28.154Z,4.18
2017-05-24T17:09:02.335Z,10.72
2017-05-24T17:11:36.521Z,4.52
2017-05-24T17:14:10.670Z,4.24
2017-05-24T17:16:44.860Z,7.38
2017-05-24T17:19:18.916Z,5.60
2017-05-24T17:21:53.075Z,4.30
2017-05-24T17:24:27.138Z,4.62
2017-05-24T17:27:01.276Z,7.48
2017-05-24T17:29:35.441Z,6.88
2017-05-24T17:32:10.117Z,5.20
2017-05-24T17:34:44.100Z,10.16
2017-05-24T17:37:18.353Z,5.60
2017-05-24T17:39:52.561Z,3.90
2017-05-24T17:42:26.768Z,4.62
2017-05-24T17:45:00.876Z,5.10
2017-05-24T17:47:34.937Z,5.02
2017-05-24T17:50:09.140Z,4.22
2017-05-24T17:52:43.404Z,5.08
2017-05-24T17:55:17.431Z,4.40
2017-05-24T17:57:51.573Z,4.64
2017-05-24T18:00:25.740Z,3.82
2017-05-24T18:03:00.033Z,4.26
2017-05-24T18:05:34.081Z,4.70
2017-05-24T18:08:08.497Z,5.16
2017-05-24T18:10:42.634Z,5.04
2017-05-24T18:13:16.733Z,6.24
2017-05-24T18:15:50.925Z,4.52
2017-05-24T18:18:25.172Z,5.08
2017-05-24T18:20:59.329Z,3.96
2017-05-24T18:23:33.381Z,6.00
2017-05-24T18:26:07.519Z,4.46
2017-05-24T18:28:41.781Z,7.20
2017-05-24T18:31:15.954Z,4.06
2017-05-24T18:33:50.125Z,7.30
2017-05-24T18:36:24.162Z,4.46
2017-05-24T18:38:58.336Z,6.58
2017-05-24T18:41:32.603Z,3.84
2017-05-24T18:44:06.706Z,4.10
2017-05-24T18:46:40.884Z,4.56
2017-05-24T18:49:14.973Z,7.78
2017-05-24T18:51:49.080Z,4.88
2017-05-24T18:54:23.391Z,7.28
2017-05-24T18:56:57.621Z,5.82
2017-05-24T18:59:31.637Z,7.60
2017-05-24T19:02:05.780Z,6.96
2017-05-24T19:04:39.928Z,6.62
2017-05-24T19:07:14.194Z,8.40
2017-05-24T19:09:48.648Z,7.88
2017-05-24T19:12:22.712Z,6.64
2017-05-24T19:14:57.061Z,6.96
2017-05-24T19:17:31.277Z,7.14
2017-05-24T19:20:05.468Z,7.30
2017-05-24T19:22:39.713Z,6.66
2017-05-24T19:25:13.785Z,7.94
2017-05-24T19:27:48.134Z,6.94
2017-05-24T19:30:22.219Z,9.08
2017-05-24T19:32:56.409Z,7.74
2017-05-24T19:35:30.445Z,16.06
2017-05-24T19:38:04.497Z,8.58
2017-05-24T19:40:38.690Z,8.98
2017-05-24T19:43:12.749Z,7.82
2017-05-24T19:45:46.782Z,7.82
2017-05-24T19:48:20.977Z,8.04
2017-05-24T19:50:55.132Z,7.94
2017-05-24T19:53:29.217Z,7.58
2017-05-24T19:56:03.390Z,7.70
2017-05-24T19:58:37.437Z,7.88
2017-05-24T20:01:12.767Z,7.78
2017-05-24T20:03:46.974Z,8.26
2017-05-24T20:06:21.060Z,12.78
2017-05-24T20:08:55.258Z,7.58
2017-05-24T20:11:29.459Z,8.32
2017-05-24T20:14:03.685Z,8.72
2017-05-24T20:16:37.733Z,10.10
2017-05-24T20:19:11.861Z,7.92
2017-05-24T20:21:46.257Z,8.36
2017-05-24T20:24:20.298Z,8.04
2017-05-24T20:26:54.509Z,8.80
2017-05-24T20:29:28.723Z,8.60
2017-05-24T20:32:02.874Z,9.22
2017-05-24T20:34:37.469Z,8.90
2017-05-24T20:37:11.597Z,8.68
2017-05-24T20:39:45.756Z,9.42
2017-05-24T20:42:19.776Z,9.02
2017-05-24T20:44:53.810Z,8.40
2017-05-24T20:47:27.849Z,8.72
2017-05-24T20:50:02.056Z,9.34
2017-05-24T20:52:36.247Z,10.20
2017-05-24T20:55:10.299Z,9.86
2017-05-24T20:57:44.462Z,11.30
2017-05-24T21:00:18.516Z,11.18
2017-05-24T21:02:52.705Z,9.64
2017-05-24T21:05:26.755Z,10.02
2017-05-24T21:08:00.963Z,9.16
2017-05-24T21:10:35.017Z,11.10
2017-05-24T21:13:09.161Z,9.58
2017-05-24T21:15:43.210Z,10.34
2017-05-24T21:18:17.289Z,9.48
2017-05-24T21:20:51.505Z,9.40
2017-05-24T21:23:25.761Z,12.32
2017-05-24T21:25:59.872Z,10.98
2017-05-24T21:28:34.025Z,10.60
2017-05-24T21:31:08.293Z,10.48
2017-05-24T21:33:43.852Z,9.66
2017-05-24T21:36:18.086Z,10.56
2017-05-24T21:38:52.282Z,10.36
2017-05-24T21:41:26.368Z,10.14
2017-05-24T21:44:00.550Z,8.56
2017-05-24T21:46:34.796Z,9.46
2017-05-24T21:49:08.868Z,10.64
2017-05-24T21:51:43.057Z,8.98
2017-05-24T21:54:17.200Z,11.04
2017-05-24T21:56:51.346Z,12.28
2017-05-24T21:59:25.653Z,9.06
2017-05-24T22:01:59.729Z,8.58
2017-05-24T22:04:36.849Z,9.02
2017-05-24T22:07:10.996Z,9.58
2017-05-24T22:09:45.128Z,8.06
2017-05-24T22:14:46.589Z,8.10
2017-05-24T22:17:20.745Z,9.12
2017-05-24T22:19:54.886Z,10.18
2017-05-24T22:22:29.124Z,10.60
2017-05-24T22:25:03.218Z,8.12
2017-05-24T22:27:37.601Z,11.50
2017-05-24T22:30:11.828Z,8.54
2017-05-24T22:32:46.180Z,8.28
2017-05-24T22:35:20.481Z,7.80
2017-05-24T22:37:54.630Z,7.70
2017-05-24T22:40:28.872Z,8.00
2017-05-24T22:43:03.094Z,9.56
2017-05-24T22:45:37.899Z,10.22
2017-05-24T22:48:12.073Z,6.66
2017-05-24T22:50:46.240Z,9.48
2017-05-24T22:53:20.356Z,9.36
2017-05-24T22:55:54.724Z,7.06
2017-05-24T22:58:28.913Z,10.62
2017-05-24T23:01:03.135Z,7.86
2017-05-24T23:03:37.201Z,5.98
2017-05-24T23:06:11.372Z,6.30
2017-05-24T23:08:45.521Z,10.22
2017-05-24T23:11:19.625Z,6.88
2017-05-24T23:13:53.763Z,6.36
2017-05-24T23:16:27.889Z,5.52
2017-05-24T23:19:01.969Z,6.34
2017-05-24T23:21:36.040Z,7.34
2017-05-24T23:24:10.149Z,7.08
2017-05-24T23:26:44.227Z,4.94
2017-05-24T23:29:18.322Z,7.70
2017-05-24T23:31:52.729Z,4.80
2017-05-24T23:34:26.897Z,5.58
2017-05-24T23:37:00.931Z,5.97
2017-05-24T23:39:35.019Z,10.98
2017-05-24T23:42:09.168Z,4.60
2017-05-24T23:44:43.439Z,5.52
2017-05-24T23:47:17.672Z,7.10
2017-05-24T23:49:52.002Z,4.68
2017-05-24T23:52:26.254Z,6.82
2017-05-24T23:55:00.449Z,5.32
2017-05-24T23:57:34.589Z,4.96
